Time;durP1;ratioP1;P1;durP2;ratioP2;P2;SDS_P1;SDS_P2;PMS_P1;PMS_P2;Temp;Humidity;BMP_temperature;BMP_pressure;BME280_temperature;BME280_humidity;BME280_pressure;Samples;Min_cycle;Max_cycle;Signal;HPM_P1;HPM_P2
2021/04/05 00:01:20;;;;;;;39.50;24.23;;;4.90;96.60;;;;;;5014601;28;20243;-92
2021/04/05 00:03:46;;;;;;;35.30;23.77;;;4.90;96.60;;;;;;5014681;28;20527;-92
2021/04/05 00:06:12;;;;;;;37.00;26.07;;;5.00;96.50;;;;;;5014774;28;20259;-91
2021/04/05 00:08:38;;;;;;;37.10;25.30;;;4.90;96.60;;;;;;5014558;28;20249;-91
2021/04/05 00:11:04;;;;;;;39.17;26.37;;;4.90;96.50;;;;;;5014269;28;20202;-93
2021/04/05 00:13:36;;;;;;;44.60;26.93;;;4.90;96.60;;;;;;5014530;28;20171;-92
2021/04/05 00:16:02;;;;;;;37.57;26.73;;;4.90;97.00;;;;;;5014541;28;20178;-91
2021/04/05 00:18:28;;;;;;;43.20;28.10;;;4.90;96.60;;;;;;5014469;28;20185;-91
2021/04/05 00:21:20;;;;;;;45.80;29.27;;;4.90;96.60;;;;;;5014124;28;20195;-91
2021/04/05 00:23:45;;;;;;;45.37;27.77;;;4.90;96.70;;;;;;5015376;28;20205;-90
2021/04/05 00:26:11;;;;;;;45.40;29.87;;;5.00;96.50;;;;;;5025438;28;20188;-91
2021/04/05 00:28:37;;;;;;;51.57;29.20;;;5.00;96.50;;;;;;5033572;28;20169;-91
2021/04/05 00:31:03;;;;;;;48.87;30.67;;;5.00;96.50;;;;;;5033829;28;20229;-90
2021/04/05 00:33:29;;;;;;;46.47;31.17;;;5.00;96.40;;;;;;5035211;28;20222;-90
2021/04/05 00:35:55;;;;;;;44.60;30.33;;;5.00;96.40;;;;;;5033840;28;20268;-91
2021/04/05 00:38:21;;;;;;;47.50;31.07;;;5.10;96.30;;;;;;5033767;28;20166;-90
2021/04/05 00:41:00;;;;;;;55.33;30.43;;;5.10;96.30;;;;;;5033537;28;20169;-92
2021/04/05 00:43:27;;;;;;;51.57;30.97;;;5.10;96.30;;;;;;5033738;28;20170;-91
2021/04/05 00:45:53;;;;;;;48.10;30.80;;;5.10;96.30;;;;;;5033483;28;20170;-90
2021/04/05 00:48:19;;;;;;;45.97;30.57;;;5.10;96.20;;;;;;5034676;28;20159;-89
2021/04/05 00:50:52;;;;;;;47.87;30.07;;;5.10;96.20;;;;;;5033630;28;20232;-91
2021/04/05 00:53:24;;;;;;;48.90;31.07;;;5.10;96.20;;;;;;5033412;28;20267;-91
2021/04/05 00:55:52;;;;;;;48.77;28.33;;;5.10;96.20;;;;;;5033375;28;20189;-90
2021/04/05 00:58:18;;;;;;;51.07;30.83;;;5.10;96.10;;;;;;5033398;28;20650;-91
2021/04/05 01:00:49;;;;;;;47.70;28.93;;;5.10;96.10;;;;;;5033237;28;20219;-89
2021/04/05 01:03:18;;;;;;;47.97;28.63;;;5.10;96.10;;;;;;5033403;28;20196;-91
2021/04/05 01:05:45;;;;;;;51.20;28.00;;;5.10;96.10;;;;;;5034304;28;20248;-90
2021/04/05 01:08:18;;;;;;;49.50;29.27;;;5.10;96.00;;;;;;5033225;28;20199;-92
2021/04/05 01:10:45;;;;;;;49.27;28.37;;;5.10;96.10;;;;;;5033178;28;20162;-91
2021/04/05 01:13:11;;;;;;;45.33;27.93;;;5.10;96.00;;;;;;5033091;28;20175;-91
2021/04/05 01:15:37;;;;;;;45.73;29.50;;;5.10;96.00;;;;;;5032985;28;20253;-89
2021/04/05 01:18:05;;;;;;;42.80;26.13;;;5.10;96.00;;;;;;5032923;28;20194;-91
2021/04/05 01:20:31;;;;;;;47.63;27.73;;;5.10;95.90;;;;;;5032882;28;20212;-91
2021/04/05 01:22:59;;;;;;;44.43;25.80;;;5.10;96.00;;;;;;5033101;28;20250;-92
2021/04/05 01:25:25;;;;;;;43.87;26.77;;;5.10;96.00;;;;;;5032928;28;20160;-93
2021/04/05 01:27:55;;;;;;;42.47;25.57;;;5.10;96.00;;;;;;5033015;28;20160;-90
2021/04/05 01:30:32;;;;;;;42.10;26.00;;;5.10;96.10;;;;;;5032981;28;20367;-91
2021/04/05 01:33:23;;;;;;;42.30;25.20;;;5.20;96.20;;;;;;5033233;28;20223;-92
2021/04/05 01:36:16;;;;;;;44.60;26.43;;;5.10;96.10;;;;;;5032929;28;20629;-92
2021/04/05 01:38:51;;;;;;;44.50;24.47;;;5.20;96.00;;;;;;5030124;28;20653;-90
2021/04/05 01:41:26;;;;;;;39.27;23.93;;;5.20;96.10;;;;;;5032103;28;20208;-91
2021/04/05 01:43:52;;;;;;;45.03;24.33;;;5.10;96.00;;;;;;5033737;28;20162;-92
2021/04/05 01:46:19;;;;;;;42.67;24.33;;;5.10;96.00;;;;;;5028779;28;20277;-91
2021/04/05 01:48:46;;;;;;;45.20;24.53;;;5.10;96.00;;;;;;5013009;28;20197;-91
2021/04/05 01:51:17;;;;;;;41.83;23.27;;;5.20;96.00;;;;;;5012695;28;20293;-90
2021/04/05 01:53:44;;;;;;;42.37;24.43;;;5.20;96.00;;;;;;5012971;28;20169;-91
2021/04/05 01:56:12;;;;;;;36.73;23.13;;;5.20;96.00;;;;;;5013168;28;20311;-91
2021/04/05 01:58:42;;;;;;;39.47;23.83;;;5.20;95.90;;;;;;5012739;28;20172;-90
2021/04/05 02:01:14;;;;;;;37.77;24.23;;;5.20;96.00;;;;;;5012726;28;20300;-90
2021/04/05 02:03:41;;;;;;;37.67;22.13;;;5.20;95.90;;;;;;5013876;28;20310;-91
2021/04/05 02:06:13;;;;;;;39.17;22.73;;;5.20;95.90;;;;;;5012817;28;20174;-88
2021/04/05 02:08:39;;;;;;;40.47;22.40;;;5.30;95.90;;;;;;5013053;28;20169;-89
2021/04/05 02:11:11;;;;;;;36.60;23.37;;;5.20;95.90;;;;;;5012983;28;20196;-91
2021/04/05 02:13:37;;;;;;;37.43;21.80;;;5.30;95.70;;;;;;5013077;28;20163;-91
2021/04/05 02:16:04;;;;;;;41.27;23.03;;;5.30;95.80;;;;;;5013946;28;20709;-91
2021/04/05 02:18:30;;;;;;;41.87;22.57;;;5.30;95.70;;;;;;5012640;28;20178;-91
2021/04/05 02:20:57;;;;;;;37.60;23.33;;;5.30;95.60;;;;;;5012746;28;20562;-89
2021/04/05 02:23:25;;;;;;;45.33;22.90;;;5.30;95.40;;;;;;5012623;28;20250;-90
2021/04/05 02:26:06;;;;;;;34.40;21.23;;;5.40;95.50;;;;;;5020829;28;20192;-90
2021/04/05 02:28:46;;;;;;;37.90;23.43;;;5.40;95.50;;;;;;5032452;28;20628;-91
2021/04/05 02:31:14;;;;;;;35.57;22.17;;;5.40;95.40;;;;;;4992927;28;20309;-90
2021/04/05 02:33:43;;;;;;;37.87;23.10;;;5.40;95.40;;;;;;4993177;28;20229;-92
2021/04/05 02:36:12;;;;;;;38.60;23.77;;;5.40;95.40;;;;;;4993096;28;20171;-91
2021/04/05 02:38:45;;;;;;;38.10;21.93;;;5.40;95.40;;;;;;4993015;28;20176;-91
2021/04/05 02:41:12;;;;;;;34.07;21.97;;;5.40;95.40;;;;;;4992684;28;20207;-92
2021/04/05 02:43:39;;;;;;;37.23;22.17;;;5.40;95.50;;;;;;4992714;28;20178;-91
2021/04/05 02:46:05;;;;;;;35.93;21.67;;;5.30;95.50;;;;;;4993937;28;20172;-90
2021/04/05 02:48:35;;;;;;;37.10;22.00;;;5.30;95.40;;;;;;4992950;28;20261;-90
2021/04/05 02:51:07;;;;;;;36.43;21.87;;;5.30;95.40;;;;;;4993256;28;20203;-89
2021/04/05 02:53:36;;;;;;;41.97;22.10;;;5.40;95.40;;;;;;4996326;28;20172;-90
2021/04/05 02:56:06;;;;;;;34.77;21.90;;;5.40;95.40;;;;;;4996422;28;20168;-91
2021/04/05 02:58:33;;;;;;;38.53;22.00;;;5.30;95.50;;;;;;4996275;28;20213;-89
2021/04/05 03:01:01;;;;;;;35.17;21.73;;;5.30;95.50;;;;;;4996016;28;20222;-90
2021/04/05 03:03:27;;;;;;;34.10;21.50;;;5.30;95.70;;;;;;4996359;28;20531;-91
2021/04/05 03:05:54;;;;;;;35.80;20.37;;;5.40;95.60;;;;;;4996118;28;20256;-91
2021/04/05 03:08:20;;;;;;;33.17;21.00;;;5.40;95.70;;;;;;4996162;28;20176;-91
2021/04/05 03:10:46;;;;;;;37.87;21.77;;;5.40;95.60;;;;;;4995945;28;20168;-89
2021/04/05 03:13:14;;;;;;;33.17;20.60;;;5.40;95.60;;;;;;4996085;28;20181;-91
2021/04/05 03:15:41;;;;;;;35.73;20.73;;;5.50;95.70;;;;;;4995894;28;20171;-89
2021/04/05 03:18:08;;;;;;;38.47;21.83;;;5.50;95.70;;;;;;4995887;28;20180;-90
2021/04/05 03:20:36;;;;;;;32.73;21.53;;;5.50;95.60;;;;;;4995833;28;20172;-91
2021/04/05 03:23:03;;;;;;;39.27;20.23;;;5.50;95.60;;;;;;4995883;28;20195;-91
2021/04/05 03:25:30;;;;;;;33.23;20.07;;;5.60;95.70;;;;;;4995839;28;20191;-90
2021/04/05 03:27:56;;;;;;;34.50;20.77;;;5.70;95.60;;;;;;4995933;28;20577;-92
2021/04/05 03:30:44;;;;;;;30.63;20.07;;;5.70;95.60;;;;;;5023270;28;20222;-92
2021/04/05 03:33:13;;;;;;;35.03;21.80;;;5.70;95.80;;;;;;5034592;28;20194;-89
2021/04/05 03:35:42;;;;;;;32.53;19.57;;;5.80;95.60;;;;;;5035160;28;20230;-92
2021/04/05 03:38:10;;;;;;;37.33;20.47;;;5.80;95.70;;;;;;5035024;28;20175;-91
2021/04/05 03:40:39;;;;;;;36.23;21.23;;;5.80;95.80;;;;;;5035113;28;20551;-91
2021/04/05 03:43:14;;;;;;;37.73;21.87;;;5.80;95.70;;;;;;5034856;28;20681;-88
2021/04/05 03:46:11;;;;;;;36.20;20.63;;;5.80;95.90;;;;;;5034697;28;20207;-91
2021/04/05 03:48:42;;;;;;;34.70;20.33;;;5.80;95.90;;;;;;5034157;28;20189;-91
2021/04/05 03:51:28;;;;;;;37.53;21.57;;;5.80;96.00;;;;;;5034623;28;20233;-92
2021/04/05 03:54:18;;;;;;;39.17;20.70;;;5.90;96.00;;;;;;5034484;28;20646;-90
2021/04/05 03:56:46;;;;;;;35.17;21.37;;;5.90;96.10;;;;;;5035818;28;20162;-91
2021/04/05 03:59:22;;;;;;;39.57;22.03;;;5.90;96.00;;;;;;5034737;28;20199;-91
2021/04/05 04:01:57;;;;;;;38.00;21.70;;;5.90;96.00;;;;;;5034524;28;20206;-92
2021/04/05 04:04:29;;;;;;;34.73;21.60;;;5.90;96.10;;;;;;5033954;28;20180;-91
2021/04/05 04:07:24;;;;;;;36.03;21.73;;;5.90;96.00;;;;;;5035574;28;20513;-92
2021/04/05 04:09:53;;;;;;;38.03;21.57;;;5.90;96.10;;;;;;5034440;28;20177;-89
2021/04/05 04:12:22;;;;;;;35.17;21.97;;;5.90;96.30;;;;;;5034162;28;20198;-91
2021/04/05 04:14:49;;;;;;;40.90;21.63;;;5.90;96.40;;;;;;5033651;28;20649;-92
2021/04/05 04:17:17;;;;;;;36.73;21.67;;;5.90;96.20;;;;;;5034382;28;20174;-91
2021/04/05 04:19:45;;;;;;;35.50;20.57;;;6.00;96.40;;;;;;5034334;28;20171;-90
2021/04/05 04:22:13;;;;;;;39.83;22.53;;;6.00;96.60;;;;;;5034081;28;20230;-91
2021/04/05 04:24:39;;;;;;;35.83;21.23;;;6.00;96.60;;;;;;5034444;28;20163;-91
2021/04/05 04:27:06;;;;;;;33.47;21.57;;;6.00;96.40;;;;;;5034170;28;20192;-90
2021/04/05 04:29:31;;;;;;;37.03;22.37;;;6.00;96.40;;;;;;5033925;28;20306;-92
2021/04/05 04:31:57;;;;;;;38.23;22.13;;;6.00;96.40;;;;;;5033928;28;20354;-91
2021/04/05 04:34:23;;;;;;;35.63;21.87;;;6.00;96.40;;;;;;5035106;28;20163;-91
2021/04/05 04:36:50;;;;;;;45.37;23.23;;;6.00;96.40;;;;;;5033795;28;20664;-90
2021/04/05 04:39:17;;;;;;;35.93;22.20;;;6.00;96.50;;;;;;5033764;28;20206;-89
2021/04/05 04:41:46;;;;;;;42.50;23.43;;;6.00;96.30;;;;;;5034741;28;20194;-91
2021/04/05 04:44:12;;;;;;;34.00;22.27;;;6.00;96.60;;;;;;5033292;28;20192;-89
2021/04/05 04:46:39;;;;;;;39.07;23.07;;;6.00;96.40;;;;;;5034775;28;20515;-91
2021/04/05 04:49:08;;;;;;;37.70;22.77;;;6.10;96.40;;;;;;5033599;28;20163;-91
2021/04/05 04:51:36;;;;;;;36.47;22.53;;;6.10;96.70;;;;;;5023672;28;20213;-91
2021/04/05 04:54:03;;;;;;;41.77;22.57;;;6.00;96.50;;;;;;5014055;28;20180;-91
2021/04/05 04:56:31;;;;;;;40.33;23.83;;;6.10;96.60;;;;;;5014941;28;20623;-90
2021/04/05 04:59:02;;;;;;;36.97;21.63;;;6.10;96.60;;;;;;5013596;28;20186;-89
2021/04/05 05:01:30;;;;;;;40.70;22.53;;;6.10;96.70;;;;;;5013605;28;20199;-91
2021/04/05 05:03:59;;;;;;;40.87;23.17;;;6.10;96.50;;;;;;5013861;28;20238;-92
2021/04/05 05:06:27;;;;;;;36.93;23.00;;;6.10;96.50;;;;;;5017278;28;20168;-91
2021/04/05 05:08:53;;;;;;;39.60;23.00;;;6.10;96.60;;;;;;5033483;28;20177;-90
2021/04/05 05:11:20;;;;;;;40.03;22.40;;;6.10;96.70;;;;;;5033172;28;20224;-90
2021/04/05 05:13:46;;;;;;;36.70;22.53;;;6.20;96.70;;;;;;5034431;28;20170;-89
2021/04/05 05:16:12;;;;;;;37.93;22.77;;;6.20;96.70;;;;;;5029703;28;20205;-89
2021/04/05 05:18:39;;;;;;;44.00;23.00;;;6.10;96.70;;;;;;5013540;28;20206;-92
2021/04/05 05:21:15;;;;;;;37.80;21.27;;;6.10;96.80;;;;;;5013122;28;20199;-90
2021/04/05 05:23:41;;;;;;;34.17;22.50;;;6.20;96.70;;;;;;5013398;28;20634;-91
2021/04/05 05:26:10;;;;;;;42.67;22.33;;;6.20;96.70;;;;;;5013439;28;20167;-91
2021/04/05 05:28:37;;;;;;;40.03;22.33;;;6.20;96.70;;;;;;5013341;28;20218;-90
2021/04/05 05:31:03;;;;;;;35.97;21.87;;;6.20;96.80;;;;;;5013062;28;20231;-90
2021/04/05 05:33:29;;;;;;;37.20;21.93;;;6.20;97.00;;;;;;5013436;28;20163;-91
2021/04/05 05:35:56;;;;;;;38.33;23.53;;;6.20;97.30;;;;;;5013096;28;20167;-92
2021/04/05 05:38:22;;;;;;;41.00;23.40;;;6.20;97.60;;;;;;5013156;28;20254;-92
2021/04/05 05:40:49;;;;;;;37.10;22.57;;;6.20;98.30;;;;;;5014048;28;20218;-89
2021/04/05 05:43:34;;;;;;;35.73;23.17;;;6.10;98.60;;;;;;5012943;28;20195;-91
2021/04/05 05:46:43;;;;;;;36.57;23.50;;;6.00;99.10;;;;;;5013413;28;20167;-91
2021/04/05 05:49:42;;;;;;;38.20;24.53;;;6.00;99.50;;;;;;5032467;28;20187;-89
2021/04/05 05:52:44;;;;;;;47.10;24.33;;;5.90;99.70;;;;;;5028527;28;20305;-90
2021/04/05 05:55:46;;;;;;;43.23;23.93;;;5.90;99.90;;;;;;5032586;28;20200;-92
2021/04/05 05:58:15;;;;;;;48.33;25.17;;;5.90;99.90;;;;;;5033665;28;20163;-91
2021/04/05 06:01:05;;;;;;;47.13;25.83;;;5.90;99.90;;;;;;5032406;28;20170;-90
2021/04/05 06:03:45;;;;;;;39.27;24.37;;;5.90;99.90;;;;;;5032517;28;20170;-91
2021/04/05 06:06:21;;;;;;;39.77;24.10;;;5.90;99.90;;;;;;5032504;28;20188;-90
2021/04/05 06:08:56;;;;;;;40.73;24.50;;;5.80;99.90;;;;;;5032490;28;20173;-91
2021/04/05 06:11:55;;;;;;;43.63;26.80;;;5.80;99.90;;;;;;5032358;28;20657;-91
2021/04/05 06:14:49;;;;;;;38.37;24.47;;;5.80;99.90;;;;;;5032335;28;20170;-91
2021/04/05 06:17:36;;;;;;;43.40;24.77;;;5.80;99.90;;;;;;5032491;28;20177;-90
2021/04/05 06:20:18;;;;;;;45.37;25.40;;;5.80;99.90;;;;;;5032323;28;20175;-91
2021/04/05 06:22:44;;;;;;;43.07;24.00;;;5.80;99.90;;;;;;5032387;28;20769;-91
2021/04/05 06:25:25;;;;;;;39.87;24.90;;;5.80;99.90;;;;;;5033601;28;20159;-90
2021/04/05 06:28:09;;;;;;;36.37;23.70;;;5.80;99.90;;;;;;5037056;28;20619;-92
2021/04/05 06:30:54;;;;;;;42.43;24.00;;;5.80;99.90;;;;;;5036279;28;20320;-91
2021/04/05 06:33:25;;;;;;;37.50;23.13;;;5.80;99.90;;;;;;5036408;28;20638;-92
2021/04/05 06:35:59;;;;;;;36.37;23.37;;;5.80;99.90;;;;;;5036191;28;20177;-92
2021/04/05 06:38:37;;;;;;;37.23;22.70;;;5.80;99.90;;;;;;5036130;28;20204;-93
2021/04/05 06:41:36;;;;;;;40.10;23.03;;;5.80;99.90;;;;;;5036789;28;20195;-91
2021/04/05 06:44:27;;;;;;;36.10;22.30;;;5.80;99.90;;;;;;5036300;28;20174;-92
2021/04/05 06:47:24;;;;;;;38.70;21.57;;;5.80;99.90;;;;;;5035893;28;20170;-91
2021/04/05 06:50:27;;;;;;;39.00;22.60;;;5.80;99.90;;;;;;5036051;28;20708;-91
2021/04/05 06:53:30;;;;;;;31.93;20.87;;;5.80;99.90;;;;;;5036005;28;20221;-91
2021/04/05 06:55:57;;;;;;;30.70;21.30;;;5.80;99.90;;;;;;5036362;28;20178;-92
2021/04/05 06:58:47;;;;;;;33.00;21.90;;;5.80;99.90;;;;;;5036345;28;20230;-93
2021/04/05 07:02:11;;;;;;;33.97;22.20;;;5.70;99.90;;;;;;5036151;28;20198;-90
2021/04/05 07:04:55;;;;;;;32.20;20.63;;;5.70;99.90;;;;;;4965993;28;20799;-93
2021/04/05 07:07:38;;;;;;;29.57;19.07;;;5.70;99.90;;;;;;5036185;28;20173;-91
2021/04/05 07:10:19;;;;;;;29.60;19.87;;;5.70;99.90;;;;;;5036202;28;20178;-90
2021/04/05 07:13:05;;;;;;;36.57;19.47;;;5.70;99.90;;;;;;5036346;28;20204;-93
2021/04/05 07:15:43;;;;;;;30.00;18.53;;;5.70;99.90;;;;;;5037118;28;20176;-90
2021/04/05 07:18:38;;;;;;;29.57;18.57;;;5.70;99.90;;;;;;5038290;28;20167;-94
2021/04/05 07:21:38;;;;;;;27.57;17.63;;;5.70;99.90;;;;;;5037295;28;20456;-91
2021/04/05 07:24:31;;;;;;;11.93;7.67;;;5.80;99.90;;;;;;5036539;28;20185;-94
2021/04/05 07:27:11;;;;;;;5.87;2.90;;;5.70;99.90;;;;;;5038971;28;20583;-95
2021/04/05 07:29:57;;;;;;;6.07;2.30;;;4.70;99.10;;;;;;5040673;28;20217;-93
2021/04/05 07:32:52;;;;;;;3.53;1.70;;;3.90;99.90;;;;;;5040576;28;20202;-94
2021/04/05 07:35:48;;;;;;;4.00;2.33;;;3.30;99.90;;;;;;5039175;28;20214;-92
2021/04/05 07:38:37;;;;;;;4.47;2.00;;;3.10;99.90;;;;;;5038914;28;20174;-91
2021/04/05 07:41:41;;;;;;;3.63;1.43;;;3.00;99.90;;;;;;5038953;28;20238;-93
2021/04/05 07:44:37;;;;;;;2.53;1.40;;;3.00;99.90;;;;;;5009730;28;20281;-92
2021/04/05 07:47:25;;;;;;;4.03;1.50;;;3.00;99.90;;;;;;5038717;28;20163;-92
2021/04/05 07:49:57;;;;;;;4.33;1.67;;;3.10;99.90;;;;;;5039259;28;20182;-93
2021/04/05 07:52:32;;;;;;;3.80;1.50;;;3.10;99.90;;;;;;5038153;28;20195;-91
2021/04/05 07:54:59;;;;;;;1.60;1.13;;;3.10;99.90;;;;;;5038544;28;20186;-94
2021/04/05 07:57:35;;;;;;;2.50;1.10;;;3.20;99.90;;;;;;5037886;28;20163;-93
2021/04/05 08:00:13;;;;;;;3.90;1.40;;;3.20;99.90;;;;;;5039008;28;20185;-91
2021/04/05 08:03:05;;;;;;;4.47;1.40;;;3.20;99.90;;;;;;5038384;28;20217;-94
2021/04/05 08:05:35;;;;;;;2.50;1.10;;;3.20;99.90;;;;;;5037999;28;20173;-92
2021/04/05 08:08:20;;;;;;;3.13;1.37;;;3.30;99.90;;;;;;5038858;28;20174;-92
2021/04/05 08:11:00;;;;;;;2.77;1.10;;;3.30;99.90;;;;;;5038628;28;20173;-91
2021/04/05 08:13:41;;;;;;;6.93;3.27;;;3.40;99.90;;;;;;5039138;28;20170;-94
2021/04/05 08:16:18;;;;;;;2.83;1.27;;;3.40;99.90;;;;;;5038363;28;20634;-91
2021/04/05 08:19:06;;;;;;;2.50;0.80;;;3.50;99.90;;;;;;5038101;28;20232;-94
2021/04/05 08:21:46;;;;;;;2.47;0.90;;;3.50;99.90;;;;;;5039761;28;20206;-92
2021/04/05 08:24:50;;;;;;;3.13;1.00;;;3.50;99.90;;;;;;5038784;28;20194;-91
2021/04/05 08:27:26;;;;;;;2.83;0.70;;;3.50;99.90;;;;;;5037297;28;20312;-94
2021/04/05 08:30:12;;;;;;;2.60;1.10;;;3.50;99.90;;;;;;5038687;28;20230;-93
2021/04/05 08:32:45;;;;;;;1.60;0.70;;;3.50;99.90;;;;;;5039359;28;20256;-92
2021/04/05 08:35:39;;;;;;;2.60;0.90;;;3.50;99.90;;;;;;5039759;28;20236;-91
2021/04/05 08:38:17;;;;;;;3.67;1.00;;;3.60;99.90;;;;;;5039980;28;20209;-93
2021/04/05 08:40:53;;;;;;;3.10;1.57;;;3.60;99.90;;;;;;5037772;28;20185;-94
2021/04/05 08:43:57;;;;;;;1.90;0.80;;;3.80;99.90;;;;;;5037512;28;20202;-93
2021/04/05 08:46:29;;;;;;;3.40;1.00;;;3.80;99.90;;;;;;5037150;28;20585;-92
2021/04/05 08:48:59;;;;;;;4.00;1.47;;;3.90;99.90;;;;;;5037239;28;20170;-94
2021/04/05 08:51:33;;;;;;;3.27;1.13;;;3.90;99.90;;;;;;5037114;28;20206;-93
2021/04/05 08:54:04;;;;;;;2.73;0.87;;;4.00;99.90;;;;;;5037856;28;20185;-95
2021/04/05 08:56:36;;;;;;;1.80;0.90;;;4.10;99.90;;;;;;5038141;28;20171;-92
2021/04/05 08:59:08;;;;;;;7.67;1.17;;;4.10;99.90;;;;;;5036696;28;20167;-92
2021/04/05 09:01:45;;;;;;;3.03;0.80;;;4.20;99.90;;;;;;5036466;28;20214;-93
2021/04/05 09:04:15;;;;;;;2.30;0.80;;;4.20;99.90;;;;;;5037304;28;20250;-95
2021/04/05 09:07:10;;;;;;;5.00;1.33;;;4.30;99.90;;;;;;5037272;28;20193;-94
2021/04/05 09:09:39;;;;;;;6.63;1.47;;;4.30;99.90;;;;;;5008447;28;20190;-90
2021/04/05 09:12:10;;;;;;;3.50;1.10;;;4.30;99.90;;;;;;5037147;28;20202;-92
2021/04/05 09:15:07;;;;;;;7.97;1.43;;;4.20;99.90;;;;;;5036545;28;20178;-91
2021/04/05 09:18:00;;;;;;;4.53;1.17;;;4.20;99.90;;;;;;4995641;28;20217;-91
2021/04/05 09:20:38;;;;;;;6.40;1.30;;;4.10;99.90;;;;;;5025313;28;20290;-92
2021/04/05 09:23:36;;;;;;;6.10;1.60;;;4.10;99.90;;;;;;5036347;28;20262;-93
2021/04/05 09:26:46;;;;;;;3.03;0.93;;;4.00;99.90;;;;;;5037321;28;20225;-92
2021/04/05 09:29:40;;;;;;;3.97;0.90;;;3.90;99.90;;;;;;5036673;28;20230;-92
2021/04/05 09:32:20;;;;;;;5.67;1.23;;;3.70;99.90;;;;;;5036426;28;20564;-94
2021/04/05 09:35:06;;;;;;;3.43;1.30;;;3.60;99.90;;;;;;5037831;28;20178;-95
2021/04/05 09:38:00;;;;;;;5.43;1.07;;;3.50;99.90;;;;;;5036893;28;20183;-92
2021/04/05 09:40:51;;;;;;;3.17;0.87;;;3.60;99.90;;;;;;5007848;28;20244;-92
2021/04/05 09:43:37;;;;;;;3.47;1.27;;;3.70;99.90;;;;;;5037293;28;20207;-94
2021/04/05 09:46:41;;;;;;;1.43;0.73;;;3.80;99.90;;;;;;5037423;28;20166;-91
2021/04/05 09:49:25;;;;;;;5.03;1.20;;;3.90;99.90;;;;;;5036183;28;20177;-92
2021/04/05 09:52:12;;;;;;;3.47;1.73;;;4.10;99.90;;;;;;5037754;28;20210;-93
2021/04/05 09:54:51;;;;;;;4.23;1.13;;;4.20;99.90;;;;;;5036431;28;20174;-93
2021/04/05 09:57:35;;;;;;;5.93;1.20;;;4.30;99.90;;;;;;5036791;28;20182;-91
2021/04/05 10:00:07;;;;;;;7.03;1.43;;;4.20;99.80;;;;;;5035956;28;20178;-94
2021/04/05 10:02:41;;;;;;;5.00;1.20;;;4.20;99.90;;;;;;5038485;28;20263;-92
2021/04/05 10:05:11;;;;;;;5.27;1.20;;;4.20;99.90;;;;;;5041115;28;20245;-92
2021/04/05 10:07:42;;;;;;;3.27;1.03;;;4.10;99.90;;;;;;5041596;28;20174;-92
2021/04/05 10:10:11;;;;;;;5.53;1.10;;;3.50;98.00;;;;;;5040015;28;20241;-92
2021/04/05 10:12:38;;;;;;;4.37;1.20;;;3.10;99.50;;;;;;5040303;28;20297;-91
2021/04/05 10:15:05;;;;;;;4.03;1.00;;;2.60;99.90;;;;;;5039853;28;20179;-92
2021/04/05 10:17:32;;;;;;;6.00;0.90;;;2.30;99.90;;;;;;5040158;28;20201;-92
2021/04/05 10:20:06;;;;;;;3.90;1.00;;;2.20;99.90;;;;;;5040811;28;20178;-92
2021/04/05 10:22:54;;;;;;;6.40;1.10;;;2.10;99.90;;;;;;5040254;28;20211;-94
2021/04/05 10:25:23;;;;;;;9.97;1.50;;;2.00;99.90;;;;;;5039113;28;20180;-92
2021/04/05 10:27:53;;;;;;;4.33;1.00;;;2.10;99.90;;;;;;5040227;28;20174;-92
2021/04/05 10:30:31;;;;;;;6.73;1.10;;;2.20;99.90;;;;;;5039696;28;20232;-92
2021/04/05 10:33:05;;;;;;;5.83;1.10;;;2.40;99.90;;;;;;5039268;28;20188;-93
2021/04/05 10:35:36;;;;;;;5.40;1.00;;;2.50;99.90;;;;;;5039841;28;20185;-90
2021/04/05 10:38:05;;;;;;;3.90;1.10;;;2.60;99.90;;;;;;5039912;28;20223;-91
2021/04/05 10:40:34;;;;;;;4.20;1.20;;;2.70;99.90;;;;;;5038374;28;20185;-92
2021/04/05 10:43:36;;;;;;;4.00;1.30;;;2.80;99.90;;;;;;5038344;28;20206;-91
2021/04/05 10:46:23;;;;;;;3.20;0.97;;;2.90;99.90;;;;;;5009221;28;20240;-93
2021/04/05 10:48:54;;;;;;;3.70;1.20;;;3.00;99.90;;;;;;5039110;28;20292;-95
2021/04/05 10:51:25;;;;;;;4.57;1.03;;;3.00;99.90;;;;;;5039247;28;20202;-94
2021/04/05 10:54:02;;;;;;;3.30;0.97;;;2.80;99.90;;;;;;5039773;28;20169;-93
2021/04/05 10:56:32;;;;;;;5.23;0.90;;;2.60;99.90;;;;;;5038678;28;20174;-94
2021/04/05 10:59:11;;;;;;;3.00;0.77;;;2.60;99.90;;;;;;5038945;28;20209;-92
2021/04/05 11:01:48;;;;;;;1.67;0.70;;;2.70;99.90;;;;;;5039568;28;20238;-92
2021/04/05 11:04:18;;;;;;;2.30;0.70;;;2.80;99.40;;;;;;5039535;28;20177;-93
2021/04/05 11:06:48;;;;;;;2.03;0.70;;;2.70;99.30;;;;;;5039145;28;20259;-92
2021/04/05 11:09:17;;;;;;;2.10;0.60;;;2.60;99.90;;;;;;5039221;28;20185;-93
2021/04/05 11:11:44;;;;;;;4.23;0.90;;;2.50;99.90;;;;;;5039601;28;20205;-94
2021/04/05 11:14:16;;;;;;;3.53;0.80;;;2.40;99.90;;;;;;5040086;28;20272;-95
2021/04/05 11:16:50;;;;;;;3.80;1.60;;;2.20;99.90;;;;;;5038899;28;20180;-94
2021/04/05 11:19:24;;;;;;;6.23;1.23;;;2.20;99.90;;;;;;5038592;28;20532;-93
2021/04/05 11:21:51;;;;;;;6.97;0.80;;;2.30;99.90;;;;;;5038980;28;20206;-93
2021/04/05 11:24:31;;;;;;;3.83;0.70;;;2.30;99.20;;;;;;5038260;28;20260;-94
2021/04/05 11:27:00;;;;;;;7.50;1.50;;;2.40;99.90;;;;;;5039039;28;20230;-95
2021/04/05 11:29:28;;;;;;;7.27;0.90;;;2.60;99.90;;;;;;5039305;28;20754;-93
2021/04/05 11:31:56;;;;;;;6.93;1.10;;;2.70;98.70;;;;;;5039173;28;20198;-92
2021/04/05 11:34:29;;;;;;;3.27;0.90;;;2.80;97.80;;;;;;5038634;28;20213;-92
2021/04/05 11:37:03;;;;;;;2.97;0.80;;;3.00;99.50;;;;;;5038905;28;20345;-94
2021/04/05 11:39:34;;;;;;;8.90;1.27;;;3.20;99.10;;;;;;5039211;28;20209;-93
2021/04/05 11:42:03;;;;;;;7.70;1.10;;;3.40;97.10;;;;;;5039645;28;20246;-92
2021/04/05 11:44:39;;;;;;;3.43;0.90;;;3.40;97.70;;;;;;5041443;28;20183;-94
2021/04/05 11:47:08;;;;;;;3.93;1.00;;;3.50;96.10;;;;;;5041938;28;20186;-94
2021/04/05 11:49:34;;;;;;;5.80;1.10;;;3.50;94.90;;;;;;5041429;28;20166;-94
2021/04/05 11:52:25;;;;;;;3.77;1.00;;;3.60;95.00;;;;;;5041714;28;20287;-91
2021/04/05 11:55:13;;;;;;;4.83;0.80;;;3.60;94.80;;;;;;5040841;28;20228;-92
2021/04/05 11:58:16;;;;;;;1.47;0.70;;;3.50;95.80;;;;;;5040233;28;20200;-93
2021/04/05 12:00:51;;;;;;;5.63;1.20;;;2.50;98.40;;;;;;5039794;28;20171;-94
2021/04/05 12:03:36;;;;;;;3.63;0.90;;;2.10;98.90;;;;;;5041638;28;20217;-93
2021/04/05 12:06:20;;;;;;;5.17;0.80;;;1.90;96.30;;;;;;5039355;28;20176;-94
2021/04/05 12:08:54;;;;;;;6.53;1.23;;;1.90;97.90;;;;;;5041446;28;20174;-91
2021/04/05 12:11:25;;;;;;;3.10;0.90;;;2.00;96.10;;;;;;5041968;28;20205;-92
2021/04/05 12:13:55;;;;;;;3.77;0.90;;;2.10;95.90;;;;;;5038966;28;20174;-91
2021/04/05 12:16:26;;;;;;;5.60;1.10;;;2.20;95.80;;;;;;5038683;28;20208;-95
2021/04/05 12:18:54;;;;;;;6.97;1.40;;;2.30;97.60;;;;;;5038750;28;20169;-93
2021/04/05 12:21:26;;;;;;;11.80;1.13;;;2.50;97.60;;;;;;5040836;28;20196;-93
2021/04/05 12:24:01;;;;;;;3.93;1.10;;;2.70;96.00;;;;;;5041055;28;20171;-93
2021/04/05 12:26:29;;;;;;;4.03;1.10;;;3.00;96.60;;;;;;5041026;28;20170;-93
2021/04/05 12:29:01;;;;;;;7.60;1.03;;;3.30;97.20;;;;;;5040007;28;20190;-93
2021/04/05 12:31:28;;;;;;;8.10;1.07;;;3.50;97.10;;;;;;5039843;28;20669;-94
2021/04/05 12:33:57;;;;;;;5.90;1.53;;;3.80;96.40;;;;;;5039176;28;20174;-92
2021/04/05 12:36:32;;;;;;;4.87;0.97;;;4.00;93.80;;;;;;5040119;28;20175;-91
2021/04/05 12:39:02;;;;;;;4.83;1.37;;;4.10;94.30;;;;;;5039179;28;20171;-92
2021/04/05 12:41:34;;;;;;;6.27;1.93;;;4.30;95.00;;;;;;5039088;28;20198;-94
2021/04/05 12:44:05;;;;;;;8.83;1.50;;;4.40;93.40;;;;;;5040760;28;20216;-91
2021/04/05 12:46:31;;;;;;;6.07;1.30;;;4.30;90.70;;;;;;5040568;28;20174;-92
2021/04/05 12:49:00;;;;;;;7.47;1.70;;;4.40;89.90;;;;;;5038502;28;20171;-94
2021/04/05 12:51:28;;;;;;;6.60;1.43;;;4.40;92.90;;;;;;5040538;28;20296;-92
2021/04/05 12:54:02;;;;;;;6.93;1.57;;;4.50;92.60;;;;;;5039129;28;20228;-93
2021/04/05 12:56:29;;;;;;;6.00;1.50;;;4.60;91.90;;;;;;5039573;28;20158;-91
2021/04/05 12:58:56;;;;;;;4.50;1.13;;;4.80;91.50;;;;;;5039617;28;20167;-93
2021/04/05 13:01:36;;;;;;;6.10;1.20;;;4.20;91.30;;;;;;5039566;28;20201;-91
2021/04/05 13:04:07;;;;;;;5.50;1.23;;;2.60;94.80;;;;;;5040971;28;20165;-92
2021/04/05 13:06:59;;;;;;;3.97;1.20;;;1.80;95.80;;;;;;5041124;28;20538;-93
2021/04/05 13:09:40;;;;;;;5.87;0.93;;;1.30;98.40;;;;;;5040954;28;20161;-93
2021/04/05 13:12:41;;;;;;;4.40;1.20;;;1.00;99.90;;;;;;5039387;28;20201;-93
2021/04/05 13:15:17;;;;;;;6.13;1.33;;;0.90;99.70;;;;;;5038867;28;20243;-92
2021/04/05 13:17:49;;;;;;;7.67;1.53;;;0.90;99.40;;;;;;5039538;28;20173;-94
2021/04/05 13:20:20;;;;;;;7.43;1.20;;;1.10;99.90;;;;;;5039735;28;20219;-90
2021/04/05 13:23:04;;;;;;;5.80;1.83;;;1.20;98.50;;;;;;5038630;28;20217;-92
2021/04/05 13:25:36;;;;;;;7.50;1.20;;;1.40;99.00;;;;;;5039365;28;20188;-94
2021/04/05 13:28:03;;;;;;;5.17;1.30;;;1.60;98.60;;;;;;5038028;28;20194;-93